Time;durP1;ratioP1;P1;durP2;ratioP2;P2;SDS_P1;SDS_P2;PMS_P1;PMS_P2;Temp;Humidity;BMP_temperature;BMP_pressure;BME280_temperature;BME280_humidity;BME280_pressure;Samples;Min_cycle;Max_cycle;Signal;HPM_P1;HPM_P2
2022/12/08 00:00:02;;;;;;;32.07;25.63;;;4.00;99.90;;;;;;5082048;28;20466;-71
2022/12/08 00:02:29;;;;;;;47.80;29.53;;;4.00;99.90;;;;;;5085374;28;20505;-71
2022/12/08 00:10:31;;;;;;;41.37;28.87;;;4.00;99.90;;;;;;5022514;28;21021;-69
2022/12/08 00:12:58;;;;;;;44.30;28.30;;;4.00;99.90;;;;;;5072794;28;20467;-71
2022/12/08 00:15:25;;;;;;;36.40;26.93;;;3.90;99.90;;;;;;5082305;28;20501;-70
2022/12/08 00:17:52;;;;;;;40.10;28.93;;;3.90;99.90;;;;;;5083150;28;20939;-68
2022/12/08 00:20:19;;;;;;;39.10;28.10;;;4.00;99.90;;;;;;5078763;28;20454;-72
2022/12/08 00:22:47;;;;;;;40.23;27.80;;;3.90;99.90;;;;;;5078125;28;20471;-70
2022/12/08 00:25:14;;;;;;;49.13;27.53;;;3.90;99.90;;;;;;5077706;28;20823;-71
2022/12/08 00:27:41;;;;;;;34.63;25.50;;;3.90;99.90;;;;;;5082726;28;20490;-72
2022/12/08 00:30:09;;;;;;;53.90;28.33;;;3.90;99.90;;;;;;5080194;28;20474;-69
2022/12/08 00:32:37;;;;;;;45.80;27.20;;;3.90;99.90;;;;;;5089978;28;20457;-70
2022/12/08 00:35:04;;;;;;;40.17;28.63;;;3.90;99.90;;;;;;5080144;28;20608;-70
2022/12/08 00:37:31;;;;;;;41.53;29.43;;;3.90;99.90;;;;;;5076950;28;20463;-69
2022/12/08 00:39:59;;;;;;;47.97;29.40;;;3.90;99.90;;;;;;5082632;28;20458;-71
2022/12/08 00:42:26;;;;;;;44.73;28.23;;;3.90;99.90;;;;;;5084763;28;20853;-70
2022/12/08 00:44:53;;;;;;;55.03;33.10;;;4.00;99.90;;;;;;5085038;28;20865;-72
2022/12/08 00:47:20;;;;;;;41.80;29.13;;;4.00;99.90;;;;;;5077026;28;21027;-71
2022/12/08 00:49:46;;;;;;;45.03;30.40;;;4.00;99.90;;;;;;5076391;28;20474;-71
2022/12/08 00:52:13;;;;;;;43.87;29.10;;;4.00;99.90;;;;;;5074510;28;20969;-71
2022/12/08 00:54:40;;;;;;;42.30;29.10;;;4.00;99.90;;;;;;5079059;28;20477;-68
2022/12/08 00:57:08;;;;;;;45.93;29.87;;;3.90;99.90;;;;;;5076621;28;21028;-70
2022/12/08 00:59:35;;;;;;;47.23;29.23;;;3.90;99.90;;;;;;5080863;28;20472;-68
2022/12/08 01:02:02;;;;;;;44.40;29.37;;;4.00;99.90;;;;;;5076320;28;20531;-72
2022/12/08 01:04:29;;;;;;;46.37;30.60;;;4.00;99.90;;;;;;5075425;28;20494;-72
2022/12/08 01:06:55;;;;;;;44.60;30.73;;;4.00;99.90;;;;;;5080215;28;20465;-68
2022/12/08 01:09:23;;;;;;;49.60;31.70;;;3.90;99.90;;;;;;5077848;28;20477;-71
2022/12/08 01:11:50;;;;;;;48.20;30.27;;;3.90;99.90;;;;;;5078453;28;20470;-69
2022/12/08 01:14:18;;;;;;;48.60;31.07;;;3.90;99.90;;;;;;5073909;28;20516;-69
2022/12/08 01:16:45;;;;;;;53.20;30.67;;;3.90;99.90;;;;;;5080786;28;20466;-69
2022/12/08 01:19:14;;;;;;;48.47;30.67;;;4.00;99.90;;;;;;5076594;28;20539;-71
2022/12/08 01:21:42;;;;;;;46.83;31.13;;;4.10;99.90;;;;;;5077030;28;21003;-72
2022/12/08 01:24:11;;;;;;;47.60;32.17;;;4.10;99.90;;;;;;5078708;28;20688;-71
2022/12/08 01:26:37;;;;;;;45.30;32.60;;;4.20;99.90;;;;;;5074314;28;20987;-71
2022/12/08 01:29:05;;;;;;;43.00;30.57;;;4.20;99.90;;;;;;5080190;28;20461;-71
2022/12/08 01:31:33;;;;;;;43.70;29.53;;;4.20;99.90;;;;;;5077548;28;20969;-71
2022/12/08 01:34:00;;;;;;;38.80;28.20;;;4.20;99.90;;;;;;5078673;28;20479;-68
2022/12/08 01:36:30;;;;;;;46.23;29.67;;;4.20;99.90;;;;;;5079034;28;20874;-71
2022/12/08 01:38:58;;;;;;;42.30;29.40;;;4.30;99.90;;;;;;5076212;28;20467;-71
2022/12/08 01:41:27;;;;;;;46.13;30.53;;;4.40;99.90;;;;;;5081492;28;20454;-68
2022/12/08 01:44:00;;;;;;;41.40;28.27;;;4.40;99.90;;;;;;5073593;28;20852;-71
2022/12/08 01:46:29;;;;;;;43.90;29.40;;;4.30;99.90;;;;;;5078516;28;20463;-70
2022/12/08 01:49:03;;;;;;;51.17;31.40;;;4.40;99.90;;;;;;5080553;28;20644;-72
2022/12/08 01:51:33;;;;;;;42.77;29.50;;;4.40;99.90;;;;;;5074989;28;20888;-69
2022/12/08 01:54:02;;;;;;;38.67;26.10;;;4.40;99.90;;;;;;5081336;28;20831;-71
2022/12/08 01:56:37;;;;;;;42.83;30.37;;;4.40;99.90;;;;;;5078845;28;20463;-72
2022/12/08 01:59:05;;;;;;;41.73;27.53;;;4.50;99.90;;;;;;5072291;28;20451;-70
2022/12/08 02:01:33;;;;;;;36.67;26.60;;;4.50;99.90;;;;;;5076290;28;20765;-72
2022/12/08 02:04:03;;;;;;;38.50;22.50;;;4.50;99.90;;;;;;5079318;28;20518;-70
2022/12/08 02:06:32;;;;;;;33.93;26.73;;;4.40;99.90;;;;;;5081554;28;20469;-70
2022/12/08 02:09:02;;;;;;;29.97;21.87;;;4.50;99.90;;;;;;5077301;28;20469;-69
2022/12/08 02:11:29;;;;;;;42.27;26.03;;;4.50;99.90;;;;;;5070767;28;21045;-71
2022/12/08 02:13:57;;;;;;;34.57;25.10;;;4.50;99.90;;;;;;5073777;28;20462;-71
2022/12/08 02:16:37;;;;;;;37.33;25.27;;;4.40;99.90;;;;;;5078659;28;20463;-71
2022/12/08 02:19:30;;;;;;;39.43;23.70;;;4.40;99.90;;;;;;5079225;28;20570;-70
2022/12/08 02:22:04;;;;;;;33.10;23.03;;;4.40;99.90;;;;;;5077943;28;21298;-69
2022/12/08 02:24:38;;;;;;;38.70;23.20;;;4.40;99.90;;;;;;5078461;28;20453;-70
2022/12/08 02:27:39;;;;;;;30.10;22.07;;;4.40;99.90;;;;;;5076556;28;20461;-70
2022/12/08 02:30:18;;;;;;;30.10;23.90;;;4.40;99.90;;;;;;5068675;28;20828;-68
2022/12/08 02:33:33;;;;;;;30.43;22.00;;;4.40;99.90;;;;;;5074379;28;20469;-71
2022/12/08 02:36:06;;;;;;;26.50;21.57;;;4.40;99.90;;;;;;5073982;28;20495;-71
2022/12/08 02:38:45;;;;;;;24.47;19.40;;;4.40;99.90;;;;;;5076083;28;20462;-69
2022/12/08 02:41:23;;;;;;;24.40;18.97;;;4.40;99.90;;;;;;5081404;28;20732;-71
2022/12/08 02:43:55;;;;;;;25.03;19.23;;;4.40;99.90;;;;;;5076434;28;20539;-70
2022/12/08 02:46:28;;;;;;;24.63;18.30;;;4.30;99.90;;;;;;5078260;28;21160;-72
2022/12/08 02:48:56;;;;;;;25.60;18.70;;;4.30;99.90;;;;;;5078682;28;20972;-69
2022/12/08 02:51:25;;;;;;;21.10;18.33;;;4.40;99.90;;;;;;5073600;28;20814;-71
2022/12/08 02:53:53;;;;;;;23.50;17.90;;;4.40;99.90;;;;;;5074324;28;20462;-71
2022/12/08 02:56:36;;;;;;;22.40;18.73;;;4.40;99.90;;;;;;5075420;28;20509;-72
2022/12/08 02:59:19;;;;;;;20.30;18.00;;;4.40;99.90;;;;;;5078386;28;20470;-69
2022/12/08 03:02:01;;;;;;;21.80;18.60;;;4.40;99.90;;;;;;5075047;28;20469;-69
2022/12/08 03:04:38;;;;;;;30.20;20.93;;;4.50;99.90;;;;;;5080309;28;20511;-72
2022/12/08 03:07:12;;;;;;;31.43;21.50;;;4.50;99.90;;;;;;5077574;28;20454;-70
2022/12/08 03:09:46;;;;;;;23.93;18.90;;;4.50;99.90;;;;;;5081266;28;20453;-70
2022/12/08 03:12:20;;;;;;;28.70;21.20;;;4.50;99.90;;;;;;5081045;28;20458;-69
2022/12/08 03:14:52;;;;;;;37.70;21.67;;;4.40;99.90;;;;;;5077996;28;20485;-70
2022/12/08 03:17:22;;;;;;;28.50;21.53;;;4.40;99.90;;;;;;5080235;28;20484;-69
2022/12/08 03:19:50;;;;;;;29.00;20.23;;;4.40;99.90;;;;;;5081885;28;20544;-72
2022/12/08 03:22:24;;;;;;;27.70;19.53;;;4.30;99.90;;;;;;5078652;28;20758;-70
2022/12/08 03:24:52;;;;;;;25.93;21.03;;;4.30;99.90;;;;;;5081510;28;20474;-71
2022/12/08 03:27:21;;;;;;;29.47;20.23;;;4.40;99.90;;;;;;5072679;28;20464;-70
2022/12/08 03:29:50;;;;;;;23.93;18.07;;;4.30;99.90;;;;;;5078301;28;20470;-72
2022/12/08 03:32:26;;;;;;;27.97;19.40;;;4.40;99.90;;;;;;5081571;28;20470;-68
2022/12/08 03:34:54;;;;;;;26.70;19.70;;;4.30;99.90;;;;;;5081281;28;20481;-69
2022/12/08 03:37:22;;;;;;;26.33;19.60;;;4.30;99.90;;;;;;5078474;28;20488;-68
2022/12/08 03:39:49;;;;;;;22.20;17.93;;;4.30;99.90;;;;;;5077577;28;20996;-71
2022/12/08 03:42:15;;;;;;;27.17;19.60;;;4.30;99.90;;;;;;5080682;28;20458;-70
2022/12/08 03:44:43;;;;;;;28.07;20.93;;;4.30;99.90;;;;;;5082623;28;20816;-72
2022/12/08 03:47:10;;;;;;;19.30;15.97;;;4.40;99.90;;;;;;5080346;28;20486;-69
2022/12/08 03:49:37;;;;;;;25.53;17.60;;;4.30;99.90;;;;;;5079257;28;20559;-71
2022/12/08 03:52:04;;;;;;;25.90;19.03;;;4.30;99.90;;;;;;5076846;28;20478;-69
2022/12/08 03:54:33;;;;;;;25.23;18.63;;;4.40;99.90;;;;;;5078396;28;20459;-69
2022/12/08 03:56:59;;;;;;;28.00;17.77;;;4.40;99.90;;;;;;5081376;28;20481;-68
2022/12/08 03:59:26;;;;;;;27.73;20.60;;;4.30;99.90;;;;;;5082002;28;20458;-71
2022/12/08 04:01:53;;;;;;;27.03;19.80;;;4.30;99.90;;;;;;5079520;28;20470;-68
2022/12/08 04:04:20;;;;;;;23.93;20.17;;;4.30;99.90;;;;;;5075895;28;20493;-69
2022/12/08 04:06:46;;;;;;;23.63;20.87;;;4.30;99.90;;;;;;5080273;28;20463;-68
2022/12/08 04:09:13;;;;;;;27.90;21.27;;;4.40;99.90;;;;;;5077081;28;20936;-69
2022/12/08 04:11:41;;;;;;;26.77;21.80;;;4.40;99.90;;;;;;5081481;28;20454;-71
2022/12/08 04:14:08;;;;;;;29.87;23.10;;;4.40;99.90;;;;;;5078859;28;20455;-71
2022/12/08 04:16:35;;;;;;;31.30;21.63;;;4.40;99.90;;;;;;5079402;28;20493;-69
2022/12/08 04:19:01;;;;;;;20.20;17.50;;;4.40;99.90;;;;;;5071621;28;20868;-68
2022/12/08 04:21:28;;;;;;;30.07;22.13;;;4.40;99.90;;;;;;5081670;28;20478;-71
2022/12/08 04:23:55;;;;;;;32.83;23.00;;;4.40;99.90;;;;;;5081797;28;20460;-71
2022/12/08 04:26:22;;;;;;;29.90;22.10;;;4.40;99.90;;;;;;5080766;28;20457;-71
2022/12/08 04:28:50;;;;;;;25.87;20.83;;;4.40;99.90;;;;;;5077073;28;20463;-69
2022/12/08 04:31:17;;;;;;;22.40;17.97;;;4.30;99.90;;;;;;5076730;28;20462;-69
2022/12/08 04:33:44;;;;;;;32.33;22.03;;;4.30;99.90;;;;;;5079942;28;20748;-69
2022/12/08 04:36:11;;;;;;;35.87;22.33;;;4.30;99.90;;;;;;5077843;28;20499;-67
2022/12/08 04:38:38;;;;;;;39.03;23.90;;;4.40;99.90;;;;;;5080225;28;20458;-72
2022/12/08 04:41:05;;;;;;;48.97;25.10;;;4.30;99.90;;;;;;5073579;28;20463;-69
2022/12/08 04:43:31;;;;;;;32.57;19.40;;;4.30;99.90;;;;;;5076129;28;20466;-68
2022/12/08 04:45:59;;;;;;;42.53;27.40;;;4.30;99.90;;;;;;5077705;28;20462;-71
2022/12/08 04:48:26;;;;;;;46.97;30.00;;;4.30;99.90;;;;;;5078099;28;20860;-68
2022/12/08 04:50:53;;;;;;;41.57;28.50;;;4.30;99.90;;;;;;5071643;28;20816;-69
2022/12/08 04:53:20;;;;;;;44.97;26.50;;;4.30;99.90;;;;;;5080064;28;20461;-70
2022/12/08 04:55:47;;;;;;;40.27;26.93;;;4.30;99.90;;;;;;5073182;28;20917;-68
2022/12/08 04:58:16;;;;;;;47.03;28.80;;;4.30;99.90;;;;;;5079817;28;20483;-71
2022/12/08 05:00:43;;;;;;;47.37;28.73;;;4.40;99.90;;;;;;5079390;28;20466;-72
2022/12/08 05:03:12;;;;;;;48.63;28.20;;;4.30;99.90;;;;;;5070510;28;20482;-69
2022/12/08 05:05:39;;;;;;;52.33;27.10;;;4.30;99.90;;;;;;5078871;28;20965;-71
2022/12/08 05:08:06;;;;;;;37.03;25.17;;;4.30;99.90;;;;;;5075968;28;20473;-70
2022/12/08 05:10:33;;;;;;;39.73;28.73;;;4.30;99.90;;;;;;5073678;28;20466;-70
2022/12/08 05:13:01;;;;;;;51.10;29.63;;;4.30;99.90;;;;;;5077530;28;20473;-68
2022/12/08 05:15:28;;;;;;;37.70;28.53;;;4.30;99.90;;;;;;5078479;28;20497;-69
2022/12/08 05:17:55;;;;;;;41.70;26.97;;;4.20;99.90;;;;;;5079881;28;20455;-68
2022/12/08 05:20:23;;;;;;;42.57;28.17;;;4.20;99.90;;;;;;5075848;28;20466;-69
2022/12/08 05:22:49;;;;;;;37.57;29.20;;;4.20;99.90;;;;;;5075385;28;20464;-71
2022/12/08 05:25:16;;;;;;;42.43;30.93;;;4.20;99.90;;;;;;5074054;28;20462;-69
2022/12/08 05:27:43;;;;;;;46.67;29.97;;;4.20;99.90;;;;;;5077614;28;20517;-71
2022/12/08 05:30:10;;;;;;;34.17;26.93;;;4.20;99.90;;;;;;5073792;28;20474;-71
2022/12/08 05:32:37;;;;;;;30.97;23.27;;;4.20;99.90;;;;;;5078220;28;20949;-71
2022/12/08 05:35:04;;;;;;;37.80;30.47;;;4.20;99.90;;;;;;5080428;28;20466;-67
2022/12/08 05:37:32;;;;;;;42.20;34.80;;;4.10;99.90;;;;;;5078424;28;20901;-68
2022/12/08 05:39:59;;;;;;;51.93;37.73;;;4.10;99.90;;;;;;5088762;28;20454;-70
2022/12/08 05:42:26;;;;;;;42.70;36.23;;;4.10;99.90;;;;;;5079236;28;20462;-69
2022/12/08 05:44:53;;;;;;;45.97;36.50;;;4.10;99.90;;;;;;5076965;28;20466;-70
2022/12/08 05:47:19;;;;;;;41.33;36.23;;;4.10;99.90;;;;;;5080753;28;20461;-70
2022/12/08 05:49:46;;;;;;;49.83;38.37;;;4.00;99.90;;;;;;5077031;28;20458;-71
2022/12/08 05:52:13;;;;;;;42.67;36.40;;;4.00;99.90;;;;;;5070700;28;20486;-70
2022/12/08 05:54:41;;;;;;;46.27;36.07;;;4.00;99.90;;;;;;5076776;28;20527;-70
2022/12/08 05:57:08;;;;;;;47.03;37.30;;;4.00;99.90;;;;;;5078913;28;20495;-70
2022/12/08 05:59:36;;;;;;;50.37;36.13;;;4.00;99.90;;;;;;5081184;28;20490;-68
2022/12/08 06:02:03;;;;;;;41.97;31.67;;;4.00;99.90;;;;;;5080781;28;20473;-71
2022/12/08 06:04:29;;;;;;;38.50;34.40;;;4.00;99.90;;;;;;5075086;28;20470;-69
2022/12/08 06:06:56;;;;;;;45.80;36.37;;;4.00;99.90;;;;;;5072700;28;20466;-70
2022/12/08 06:09:23;;;;;;;41.07;33.17;;;4.00;99.90;;;;;;5075050;28;20486;-68
2022/12/08 06:11:51;;;;;;;40.00;33.63;;;4.00;99.90;;;;;;5069715;28;20454;-70
2022/12/08 06:14:18;;;;;;;43.00;33.10;;;3.90;99.90;;;;;;5077379;28;20536;-70
2022/12/08 06:16:44;;;;;;;44.90;36.00;;;3.90;99.90;;;;;;5077866;28;20477;-69
2022/12/08 06:19:11;;;;;;;49.47;33.50;;;3.90;99.90;;;;;;5071495;28;20482;-70
2022/12/08 06:21:38;;;;;;;34.10;30.57;;;4.00;99.90;;;;;;5075241;28;20459;-71
2022/12/08 06:24:05;;;;;;;45.30;35.60;;;3.90;99.90;;;;;;5075605;28;20450;-69
2022/12/08 06:26:31;;;;;;;43.03;35.70;;;3.90;99.90;;;;;;5077859;28;20467;-70
2022/12/08 06:28:59;;;;;;;44.37;33.37;;;3.80;99.90;;;;;;5077950;28;20454;-69
2022/12/08 06:31:27;;;;;;;46.80;36.00;;;3.90;99.90;;;;;;5077671;28;21060;-71
2022/12/08 06:33:55;;;;;;;36.83;32.47;;;3.80;99.90;;;;;;5073297;28;20836;-70
2022/12/08 06:36:25;;;;;;;49.90;33.37;;;3.90;99.90;;;;;;5076323;28;20513;-71
2022/12/08 06:38:52;;;;;;;40.10;33.47;;;3.90;99.90;;;;;;5073464;28;20892;-71
2022/12/08 06:41:19;;;;;;;47.03;35.33;;;3.90;99.90;;;;;;5074863;28;20469;-70
2022/12/08 06:43:46;;;;;;;44.00;35.10;;;3.90;99.90;;;;;;5085766;28;20450;-70
2022/12/08 06:46:17;;;;;;;50.17;36.37;;;3.90;99.90;;;;;;5081251;28;20458;-71
2022/12/08 06:48:44;;;;;;;36.97;32.00;;;3.90;99.90;;;;;;5074968;28;20459;-69
2022/12/08 06:51:13;;;;;;;43.17;35.43;;;3.80;99.90;;;;;;5077728;28;20478;-72
2022/12/08 06:53:41;;;;;;;48.40;34.07;;;3.80;99.90;;;;;;5081927;28;20488;-69
2022/12/08 06:56:09;;;;;;;43.60;35.10;;;3.80;99.90;;;;;;5072300;28;20595;-70
2022/12/08 06:58:36;;;;;;;43.70;35.83;;;3.80;99.90;;;;;;5079858;28;20466;-71
2022/12/08 07:01:07;;;;;;;32.80;29.27;;;3.80;99.90;;;;;;5074862;28;20461;-71
2022/12/08 07:03:35;;;;;;;37.80;33.50;;;3.70;99.90;;;;;;5078994;28;20790;-70
2022/12/08 07:06:02;;;;;;;40.03;33.73;;;3.70;99.90;;;;;;5078412;28;20466;-70
2022/12/08 07:08:29;;;;;;;41.53;33.43;;;3.70;99.90;;;;;;5078375;28;20523;-70
2022/12/08 07:10:56;;;;;;;41.90;34.03;;;3.70;99.90;;;;;;5074672;28;20710;-69
2022/12/08 07:13:22;;;;;;;47.97;33.17;;;3.70;99.90;;;;;;5078105;28;20469;-70
2022/12/08 07:15:49;;;;;;;40.00;33.73;;;3.70;99.90;;;;;;5075415;28;20489;-70
2022/12/08 07:18:16;;;;;;;44.77;30.80;;;3.70;99.90;;;;;;5076857;28;20490;-69
2022/12/08 07:20:44;;;;;;;33.10;27.63;;;3.60;99.90;;;;;;5083311;28;20454;-69
2022/12/08 07:23:11;;;;;;;39.63;33.83;;;3.60;99.90;;;;;;5071134;28;20958;-69
2022/12/08 07:25:38;;;;;;;38.87;33.40;;;3.60;99.90;;;;;;5071425;28;20473;-69
2022/12/08 07:28:09;;;;;;;41.77;32.87;;;3.60;99.90;;;;;;5081805;28;20981;-71
2022/12/08 07:30:36;;;;;;;37.53;32.93;;;3.60;99.90;;;;;;5080182;28;20490;-70
2022/12/08 07:33:03;;;;;;;54.10;34.70;;;3.60;99.90;;;;;;5072486;28;20461;-71
2022/12/08 07:35:30;;;;;;;46.47;35.53;;;3.60;99.90;;;;;;5077704;28;20911;-72
2022/12/08 07:37:58;;;;;;;47.50;36.80;;;3.60;99.90;;;;;;5080323;28;20462;-70
2022/12/08 07:40:25;;;;;;;46.50;35.80;;;3.60;99.90;;;;;;5078287;28;20876;-70
2022/12/08 07:42:52;;;;;;;48.03;36.53;;;3.60;99.90;;;;;;5079025;28;20833;-69
2022/12/08 07:45:18;;;;;;;51.63;35.73;;;3.60;99.90;;;;;;5059066;28;20503;-70
2022/12/08 07:47:45;;;;;;;48.77;37.93;;;3.60;99.90;;;;;;5081594;28;20455;-72
2022/12/08 07:50:12;;;;;;;57.23;38.10;;;3.60;99.90;;;;;;5079638;28;20466;-72
2022/12/08 07:52:39;;;;;;;48.67;36.40;;;3.60;99.90;;;;;;5075391;28;20478;-72
2022/12/08 07:55:08;;;;;;;52.90;38.33;;;3.60;99.90;;;;;;5079610;28;20841;-72
2022/12/08 07:57:34;;;;;;;55.10;39.13;;;3.70;99.90;;;;;;5077194;28;20482;-70
2022/12/08 08:00:01;;;;;;;50.93;37.90;;;3.60;99.90;;;;;;5082552;28;20454;-70
2022/12/08 08:02:28;;;;;;;50.37;38.30;;;3.70;99.90;;;;;;5085489;28;20618;-71
2022/12/08 08:04:55;;;;;;;47.83;36.93;;;3.70;99.90;;;;;;5088501;28;20693;-72
2022/12/08 08:07:21;;;;;;;61.87;39.37;;;3.70;99.90;;;;;;5093543;28;20461;-69
2022/12/08 08:09:48;;;;;;;57.00;38.17;;;3.60;99.90;;;;;;5078797;28;20462;-71
2022/12/08 08:12:16;;;;;;;46.53;36.37;;;3.70;99.90;;;;;;5083033;28;20453;-70
2022/12/08 08:14:43;;;;;;;47.23;36.43;;;3.70;99.90;;;;;;5078652;28;20468;-70
2022/12/08 08:17:10;;;;;;;46.97;36.77;;;3.70;99.90;;;;;;5079838;28;20928;-70
2022/12/08 08:19:36;;;;;;;42.10;34.90;;;3.70;99.90;;;;;;5082363;28;20455;-70
2022/12/08 08:22:03;;;;;;;49.23;36.67;;;3.60;99.90;;;;;;5085676;28;20458;-71
2022/12/08 08:24:30;;;;;;;39.63;33.60;;;3.60;99.90;;;;;;5089025;28;20465;-70
2022/12/08 08:26:56;;;;;;;50.30;36.67;;;3.60;99.90;;;;;;5081987;28;20469;-69
2022/12/08 08:29:25;;;;;;;38.50;31.80;;;3.60;99.90;;;;;;5080594;28;20465;-71
2022/12/08 08:31:51;;;;;;;43.87;33.17;;;3.60;99.90;;;;;;5086235;28;20530;-71
2022/12/08 08:34:18;;;;;;;35.37;30.67;;;3.50;99.90;;;;;;5091504;28;20450;-70
2022/12/08 08:36:45;;;;;;;36.07;31.03;;;3.60;99.90;;;;;;5082165;28;20481;-69
2022/12/08 08:39:12;;;;;;;41.80;32.60;;;3.60;99.90;;;;;;5071103;28;20474;-71
2022/12/08 08:41:39;;;;;;;40.13;31.47;;;3.60;99.90;;;;;;5077940;28;20497;-70
2022/12/08 08:44:06;;;;;;;39.40;31.27;;;3.60;99.90;;;;;;5070600;28;20892;-69
2022/12/08 08:46:34;;;;;;;37.80;33.73;;;3.60;99.90;;;;;;5079018;28;20458;-71
2022/12/08 08:49:01;;;;;;;36.27;32.30;;;3.60;99.90;;;;;;5083217;28;20466;-71
2022/12/08 08:51:27;;;;;;;40.40;34.33;;;3.50;99.90;;;;;;5076582;28;21016;-71
2022/12/08 08:53:54;;;;;;;38.53;32.03;;;3.60;99.90;;;;;;5082233;28;20468;-71
2022/12/08 08:56:21;;;;;;;41.80;33.20;;;3.70;99.90;;;;;;5079961;28;20936;-68
2022/12/08 08:58:48;;;;;;;37.50;31.80;;;3.70;99.90;;;;;;5078213;28;20966;-71
2022/12/08 09:01:17;;;;;;;34.33;30.83;;;3.60;99.90;;;;;;5074952;28;20924;-69
2022/12/08 09:03:45;;;;;;;36.73;32.77;;;3.70;99.90;;;;;;5080859;28;20482;-70
2022/12/08 09:06:13;;;;;;;40.43;31.40;;;3.70;99.90;;;;;;5082916;28;20470;-69
2022/12/08 09:08:40;;;;;;;34.20;30.63;;;3.70;99.90;;;;;;5079448;28;20458;-70
2022/12/08 09:11:07;;;;;;;34.43;30.90;;;3.70;99.90;;;;;;5077700;28;20728;-69
2022/12/08 09:13:34;;;;;;;34.90;31.13;;;3.70;99.90;;;;;;5082903;28;20461;-71
2022/12/08 09:16:02;;;;;;;40.23;30.30;;;3.80;99.90;;;;;;5079548;28;20472;-70
2022/12/08 09:18:29;;;;;;;33.77;30.00;;;3.70;99.90;;;;;;5074798;28;20586;-71
2022/12/08 09:21:03;;;;;;;32.07;28.70;;;3.70;99.90;;;;;;5076183;28;20488;-71
2022/12/08 09:23:30;;;;;;;34.77;30.23;;;3.70;99.90;;;;;;5078124;28;20556;-69
2022/12/08 09:25:56;;;;;;;31.70;28.80;;;3.70;99.90;;;;;;5082699;28;20784;-70
2022/12/08 09:28:23;;;;;;;33.67;29.87;;;3.70;99.90;;;;;;5080446;28;20450;-71
2022/12/08 09:30:51;;;;;;;34.73;30.80;;;3.60;99.90;;;;;;5076718;28;21081;-71
2022/12/08 09:33:18;;;;;;;34.20;30.70;;;3.70;99.90;;;;;;5080276;28;20462;-72
2022/12/08 09:35:45;;;;;;;34.10;30.40;;;3.70;99.90;;;;;;5076127;28;20466;-72
2022/12/08 09:38:13;;;;;;;35.77;31.90;;;3.80;99.90;;;;;;5078788;28;20489;-70
2022/12/08 09:40:48;;;;;;;35.93;32.10;;;3.70;99.90;;;;;;5085921;28;21063;-72
2022/12/08 09:43:33;;;;;;;35.53;31.63;;;3.80;99.90;;;;;;5076479;28;20454;-71
2022/12/08 09:46:01;;;;;;;36.33;32.63;;;3.80;99.90;;;;;;5076018;28;20454;-71
2022/12/08 09:48:34;;;;;;;32.73;29.43;;;3.90;99.90;;;;;;5079575;28;20467;-71
2022/12/08 09:51:03;;;;;;;37.13;32.90;;;3.90;99.90;;;;;;5074567;28;21098;-69
2022/12/08 09:53:35;;;;;;;36.83;32.97;;;4.00;99.90;;;;;;5083289;28;20481;-69
2022/12/08 09:56:06;;;;;;;35.30;31.53;;;4.00;99.90;;;;;;5079092;28;20453;-69
2022/12/08 09:58:46;;;;;;;35.03;31.30;;;4.00;99.90;;;;;;5075003;28;21005;-71
2022/12/08 10:01:14;;;;;;;40.17;31.63;;;4.00;99.90;;;;;;5075439;28;20458;-69
2022/12/08 10:03:42;;;;;;;43.13;33.23;;;4.10;99.90;;;;;;5080421;28;20542;-72
2022/12/08 10:06:19;;;;;;;37.00;31.30;;;4.00;99.90;;;;;;5084744;28;20462;-69
2022/12/08 10:08:57;;;;;;;35.87;31.93;;;4.10;99.90;;;;;;5080035;28;20825;-70
2022/12/08 10:11:29;;;;;;;35.37;29.00;;;4.10;99.90;;;;;;5075030;28;20469;-71
2022/12/08 10:14:02;;;;;;;31.73;27.87;;;4.10;99.90;;;;;;5075553;28;20466;-72
2022/12/08 10:16:35;;;;;;;36.77;28.60;;;4.10;99.90;;;;;;5072016;28;20461;-71
2022/12/08 10:19:13;;;;;;;33.43;29.97;;;4.10;99.90;;;;;;5078440;28;20489;-71
2022/12/08 10:21:40;;;;;;;39.50;27.67;;;4.20;99.90;;;;;;5074181;28;20471;-72
2022/12/08 10:24:15;;;;;;;31.40;27.20;;;4.10;99.90;;;;;;5082414;28;20548;-71
2022/12/08 10:26:42;;;;;;;31.70;27.77;;;4.10;99.90;;;;;;5079509;28;20468;-71
2022/12/08 10:29:13;;;;;;;31.80;28.63;;;4.20;99.90;;;;;;5065577;28;20462;-70
2022/12/08 10:31:40;;;;;;;34.70;26.50;;;4.20;99.90;;;;;;5076723;28;20524;-70
2022/12/08 10:34:17;;;;;;;32.23;28.17;;;4.30;99.90;;;;;;5079876;28;20924;-71
2022/12/08 10:36:50;;;;;;;35.00;28.63;;;4.30;99.90;;;;;;5085509;28;20607;-72
2022/12/08 10:39:35;;;;;;;32.33;28.93;;;4.30;99.90;;;;;;5075892;28;20465;-72
2022/12/08 10:42:08;;;;;;;35.17;27.47;;;4.30;99.90;;;;;;5071165;28;20545;-70
2022/12/08 10:44:47;;;;;;;36.80;27.10;;;4.20;99.90;;;;;;5082024;28;20547;-72
2022/12/08 10:47:14;;;;;;;30.40;27.10;;;4.30;99.90;;;;;;5078260;28;20465;-71
2022/12/08 10:49:41;;;;;;;37.57;28.40;;;4.30;99.90;;;;;;5076843;28;20458;-71
2022/12/08 10:52:21;;;;;;;32.70;26.07;;;4.30;99.90;;;;;;5075660;28;20512;-70
2022/12/08 10:54:52;;;;;;;32.47;25.57;;;4.30;99.90;;;;;;5075957;28;20474;-70
2022/12/08 10:57:21;;;;;;;39.97;25.97;;;4.40;99.90;;;;;;5073777;28;20519;-71
2022/12/08 10:59:49;;;;;;;32.70;23.80;;;4.60;99.90;;;;;;5082280;28;20515;-72
2022/12/08 11:02:19;;;;;;;26.53;22.30;;;4.60;99.90;;;;;;5079131;28;20814;-71
2022/12/08 11:04:47;;;;;;;29.20;23.20;;;4.50;99.90;;;;;;5082239;28;20564;-72
2022/12/08 11:07:21;;;;;;;32.37;23.87;;;4.60;99.90;;;;;;5076519;28;21068;-71
2022/12/08 11:09:54;;;;;;;32.30;24.87;;;4.60;99.90;;;;;;5073850;28;20499;-70
2022/12/08 11:12:22;;;;;;;30.07;24.13;;;4.70;99.90;;;;;;5072888;28;20459;-72
2022/12/08 11:14:54;;;;;;;35.90;23.57;;;4.70;99.90;;;;;;5074381;28;21038;-72
2022/12/08 11:17:25;;;;;;;31.20;23.80;;;4.70;99.90;;;;;;5087044;28;20481;-71
2022/12/08 11:19:58;;;;;;;39.10;24.50;;;4.80;99.90;;;;;;5082038;28;20466;-69
2022/12/08 11:22:27;;;;;;;28.63;23.83;;;4.90;99.90;;;;;;5078142;28;20828;-72
2022/12/08 11:25:01;;;;;;;31.97;24.43;;;4.90;99.90;;;;;;5075099;28;20979;-70
2022/12/08 11:27:28;;;;;;;35.20;26.70;;;5.10;99.90;;;;;;5078719;28;20753;-70
2022/12/08 11:29:55;;;;;;;33.37;25.83;;;5.20;99.90;;;;;;5083987;28;20458;-69
2022/12/08 11:32:22;;;;;;;27.43;24.47;;;5.50;99.90;;;;;;5085076;28;21051;-72
2022/12/08 11:34:53;;;;;;;39.20;26.97;;;5.50;99.90;;;;;;5079463;28;20469;-69
2022/12/08 11:37:24;;;;;;;32.73;24.67;;;5.80;99.90;;;;;;5077577;28;20479;-68
2022/12/08 11:39:55;;;;;;;28.77;23.70;;;5.90;99.90;;;;;;5076239;28;20465;-72
2022/12/08 11:42:29;;;;;;;30.83;23.70;;;5.70;99.90;;;;;;5071057;28;21023;-71
2022/12/08 11:44:58;;;;;;;30.37;24.07;;;5.70;99.90;;;;;;5082720;28;20455;-70
2022/12/08 11:47:31;;;;;;;29.90;25.17;;;5.80;99.90;;;;;;5087285;28;20461;-72
2022/12/08 11:50:04;;;;;;;28.13;23.90;;;5.80;99.90;;;;;;5080347;28;20468;-71
2022/12/08 11:52:40;;;;;;;32.10;25.37;;;5.90;99.90;;;;;;5082987;28;20861;-72
2022/12/08 11:55:32;;;;;;;32.83;22.90;;;5.90;99.90;;;;;;5071637;28;20587;-68
2022/12/08 11:58:04;;;;;;;29.73;23.93;;;5.90;99.90;;;;;;5075881;28;20518;-72
2022/12/08 12:00:31;;;;;;;27.97;24.20;;;5.90;99.90;;;;;;5061928;28;20496;-71
2022/12/08 12:03:06;;;;;;;27.90;23.40;;;5.90;99.90;;;;;;5078888;28;20471;-72
2022/12/08 12:05:43;;;;;;;26.83;22.47;;;6.00;99.90;;;;;;5081995;28;20960;-72
2022/12/08 12:08:25;;;;;;;25.13;22.43;;;6.00;99.90;;;;;;5078686;28;20484;-72
2022/12/08 12:11:04;;;;;;;26.77;21.73;;;6.00;99.90;;;;;;5079592;28;20467;-70
2022/12/08 12:13:52;;;;;;;28.13;23.10;;;5.90;99.90;;;;;;5082008;28;20470;-71
2022/12/08 12:16:48;;;;;;;24.93;22.37;;;5.90;99.90;;;;;;5075185;28;23156;-70
2022/12/08 12:19:17;;;;;;;28.70;22.53;;;5.90;99.90;;;;;;5082090;28;20496;-69
2022/12/08 12:21:46;;;;;;;31.80;23.40;;;5.90;99.90;;;;;;5077590;28;20690;-70
2022/12/08 12:24:18;;;;;;;25.93;23.33;;;6.20;99.90;;;;;;5084074;28;20880;-70
2022/12/08 12:26:55;;;;;;;24.67;20.37;;;6.30;99.90;;;;;;5083421;28;20465;-71
2022/12/08 12:29:27;;;;;;;25.53;22.10;;;6.20;99.90;;;;;;5085672;28;20509;-71
2022/12/08 12:31:58;;;;;;;26.93;21.47;;;6.20;99.90;;;;;;5082441;28;20471;-69
2022/12/08 12:34:27;;;;;;;25.50;20.30;;;6.20;99.90;;;;;;5080107;28;21015;-70
2022/12/08 12:36:56;;;;;;;21.20;19.20;;;6.10;99.90;;;;;;5080007;28;20455;-71
2022/12/08 12:39:26;;;;;;;24.00;21.47;;;6.10;99.90;;;;;;5081962;28;20495;-71
2022/12/08 12:41:56;;;;;;;22.13;20.13;;;6.20;99.90;;;;;;5086062;28;20469;-70
2022/12/08 12:44:43;;;;;;;28.30;20.50;;;6.10;99.90;;;;;;5087043;28;20450;-72
2022/12/08 12:47:34;;;;;;;23.60;21.17;;;6.00;99.90;;;;;;5084695;28;20454;-72
2022/12/08 12:50:07;;;;;;;22.67;20.57;;;6.00;99.90;;;;;;5087946;28;20595;-70
2022/12/08 12:52:45;;;;;;;24.23;21.73;;;5.90;99.90;;;;;;5078406;28;20559;-70